Terminal Aerodrome Forecast
Issued by NWS

Home | Current Version | Previous Version | Text Only | Print | Product List | Glossary Off
Versions: 1 2 3 4 5 6 7 8 9 10 11 12 13 14 15 16 17 18 19 20 21 22 23 24

000
FTUS41 KCLE 220500
TAFFDY
TAF
KFDY 220538Z 2206/2306 35008KT P6SM OVC018
     FM221000 35008KT P6SM OVC025
     FM221700 02008KT P6SM BKN035
     FM222100 02006KT P6SM SCT035
     FM230000 02004KT P6SM SKC=

USA.gov is the U.S. government's official web portal to all federal, state and local government web resources and services.